createdAt,value
2019-02-06T00:00:44.122Z,3.13
2019-02-06T00:03:16.108Z,3.16
2019-02-06T00:05:45.384Z,3.17
2019-02-06T00:08:14.670Z,3.18
2019-02-06T00:10:43.911Z,3.18
2019-02-06T00:13:13.192Z,3.18
2019-02-06T00:15:42.455Z,3.18
2019-02-06T00:18:11.742Z,3.19
2019-02-06T00:20:41.043Z,3.19
2019-02-06T00:23:10.326Z,3.19
2019-02-06T00:25:39.594Z,3.21
2019-02-06T00:28:14.920Z,3.20
2019-02-06T00:30:44.160Z,3.20
2019-02-06T00:33:13.434Z,3.21
2019-02-06T00:35:42.688Z,3.20
2019-02-06T00:38:12.061Z,3.20
2019-02-06T00:40:41.363Z,3.19
2019-02-06T00:43:10.636Z,3.17
2019-02-06T00:45:39.900Z,3.12
2019-02-06T00:48:09.202Z,3.07
2019-02-06T00:50:38.508Z,2.98
2019-02-06T00:53:07.789Z,2.90
2019-02-06T00:55:37.038Z,2.80
2019-02-06T00:58:06.310Z,2.72
2019-02-06T01:00:35.583Z,2.65
2019-02-06T01:03:05.240Z,2.57
2019-02-06T01:05:38.481Z,2.51
2019-02-06T01:08:03.825Z,2.44
2019-02-06T01:10:33.092Z,2.40
2019-02-06T01:13:02.336Z,2.36
2019-02-06T01:15:31.592Z,2.31
2019-02-06T01:18:00.862Z,2.28
2019-02-06T01:20:30.126Z,2.26
2019-02-06T01:22:59.358Z,2.22
2019-02-06T01:25:28.594Z,2.19
2019-02-06T01:27:57.859Z,2.14
2019-02-06T01:30:27.606Z,2.10
2019-02-06T01:32:56.840Z,2.08
2019-02-06T01:35:26.162Z,2.04
2019-02-06T01:37:55.475Z,1.99
2019-02-06T01:40:24.777Z,1.95
2019-02-06T01:42:54.026Z,1.91
2019-02-06T01:45:23.376Z,1.87
2019-02-06T01:47:52.632Z,1.83
2019-02-06T01:50:21.908Z,1.81
2019-02-06T01:52:51.186Z,1.75
2019-02-06T01:55:20.478Z,1.70
2019-02-06T01:57:49.742Z,1.65
2019-02-06T02:00:20.674Z,1.61
2019-02-06T02:02:49.948Z,1.55
2019-02-06T02:05:20.350Z,1.52
2019-02-06T02:07:49.884Z,1.51
2019-02-06T02:10:19.700Z,1.47
2019-02-06T02:12:48.986Z,1.45
2019-02-06T02:15:18.263Z,1.42
2019-02-06T02:17:47.641Z,1.40
2019-02-06T02:20:19.204Z,1.38
2019-02-06T02:22:48.536Z,1.36
2019-02-06T02:25:17.851Z,1.34
2019-02-06T02:27:47.158Z,1.32
2019-02-06T02:30:18.967Z,1.31
2019-02-06T02:32:48.314Z,1.29
2019-02-06T02:35:17.629Z,1.29
2019-02-06T02:37:46.950Z,1.30
2019-02-06T02:40:16.268Z,1.29
2019-02-06T02:42:48.510Z,1.29
2019-02-06T02:45:17.771Z,1.27
2019-02-06T02:47:47.044Z,1.24
2019-02-06T02:50:16.318Z,1.27
2019-02-06T02:52:45.585Z,1.23
2019-02-06T02:55:14.834Z,1.20
2019-02-06T02:57:44.185Z,1.18
2019-02-06T03:00:16.096Z,1.17
2019-02-06T03:02:51.111Z,1.13
2019-02-06T03:05:23.563Z,1.10
2019-02-06T03:07:52.919Z,1.08
2019-02-06T03:10:22.208Z,1.09
2019-02-06T03:12:51.476Z,1.07
2019-02-06T03:15:20.738Z,1.05
2019-02-06T03:17:50.017Z,1.05
2019-02-06T03:20:19.288Z,1.03
2019-02-06T03:22:48.588Z,1.00
2019-02-06T03:25:17.869Z,0.99
2019-02-06T03:27:47.168Z,0.99
2019-02-06T03:30:16.737Z,0.98
2019-02-06T03:32:46.035Z,0.98
2019-02-06T03:35:15.290Z,0.98
2019-02-06T03:37:44.591Z,0.97
2019-02-06T03:40:13.917Z,0.98
2019-02-06T03:42:43.195Z,0.96
2019-02-06T03:45:12.501Z,0.95
2019-02-06T03:47:41.770Z,0.95
2019-02-06T03:50:13.298Z,0.93
2019-02-06T03:52:42.560Z,0.95
2019-02-06T03:55:12.044Z,0.97
2019-02-06T03:57:41.332Z,0.94
2019-02-06T04:00:12.965Z,0.92
2019-02-06T04:02:42.249Z,0.91
2019-02-06T04:05:11.596Z,0.89
2019-02-06T04:07:40.990Z,0.87
2019-02-06T04:10:12.016Z,0.89
2019-02-06T04:12:41.287Z,0.88
2019-02-06T04:15:10.543Z,0.88
2019-02-06T04:17:39.841Z,0.85
2019-02-06T04:20:10.136Z,0.86
2019-02-06T04:22:39.456Z,0.84
2019-02-06T04:25:08.849Z,0.87
2019-02-06T04:27:38.116Z,0.87
2019-02-06T04:30:08.605Z,0.89
2019-02-06T04:32:37.860Z,0.86
2019-02-06T04:35:08.858Z,0.87
2019-02-06T04:37:38.228Z,0.83
2019-02-06T04:40:11.584Z,0.85
2019-02-06T04:42:40.836Z,0.85
2019-02-06T04:45:10.944Z,0.84
2019-02-06T04:47:40.247Z,0.85
2019-02-06T04:50:10.431Z,0.83
2019-02-06T04:52:39.742Z,0.81
2019-02-06T04:55:10.064Z,0.80
2019-02-06T04:57:39.354Z,0.82
2019-02-06T05:00:17.882Z,0.82
2019-02-06T05:02:47.218Z,0.84
2019-02-06T05:05:16.486Z,0.85
2019-02-06T05:07:45.759Z,0.86
2019-02-06T05:10:17.126Z,0.88
2019-02-06T05:12:44.426Z,0.89
2019-02-06T05:15:13.747Z,0.92
2019-02-06T05:17:43.036Z,0.92
2019-02-06T05:20:41.035Z,0.95
2019-02-06T05:23:10.444Z,0.97
2019-02-06T05:25:39.701Z,0.99
2019-02-06T05:28:09.020Z,1.00
2019-02-06T05:30:38.269Z,1.02
2019-02-06T05:33:07.575Z,1.01
2019-02-06T05:35:36.826Z,1.02
2019-02-06T05:38:06.178Z,1.05
2019-02-06T05:40:35.524Z,1.08
2019-02-06T05:43:04.796Z,1.09
2019-02-06T05:45:34.047Z,1.09
2019-02-06T05:48:03.419Z,1.13
2019-02-06T05:50:32.665Z,1.16
2019-02-06T05:53:01.916Z,1.19
2019-02-06T05:55:31.178Z,1.22
2019-02-06T05:58:00.806Z,1.26
2019-02-06T06:00:33.284Z,1.29
2019-02-06T06:03:02.690Z,1.30
2019-02-06T06:05:31.802Z,1.33
2019-02-06T06:08:01.114Z,1.37
2019-02-06T06:10:30.406Z,1.39
2019-02-06T06:12:59.742Z,1.42
2019-02-06T06:15:29.039Z,1.46
2019-02-06T06:17:58.338Z,1.51
2019-02-06T06:20:27.629Z,1.52
2019-02-06T06:22:56.960Z,1.53
2019-02-06T06:25:26.290Z,1.54
2019-02-06T06:27:55.531Z,1.55
2019-02-06T06:30:24.870Z,1.56
2019-02-06T06:32:54.120Z,1.61
2019-02-06T06:35:23.378Z,1.59
2019-02-06T06:37:59.396Z,1.62
2019-02-06T06:40:22.432Z,1.65
2019-02-06T06:42:51.731Z,1.70
2019-02-06T06:45:22.122Z,1.79
2019-02-06T06:47:51.658Z,1.80
2019-02-06T06:50:22.596Z,1.83
2019-02-06T06:52:51.951Z,1.86
2019-02-06T06:55:21.266Z,2.19
2019-02-06T06:57:50.526Z,2.43
2019-02-06T07:00:24.775Z,2.65
2019-02-06T07:02:54.067Z,2.68
2019-02-06T07:05:23.424Z,2.48
2019-02-06T07:07:52.904Z,2.25
2019-02-06T07:10:22.190Z,2.09
2019-02-06T07:12:51.489Z,2.03
2019-02-06T07:15:25.811Z,1.96
2019-02-06T07:17:55.180Z,1.94
2019-02-06T07:20:24.460Z,1.94
2019-02-06T07:22:53.748Z,1.93
2019-02-06T07:25:23.079Z,1.95
2019-02-06T07:27:52.362Z,1.92
2019-02-06T07:30:32.471Z,1.92
2019-02-06T07:33:01.752Z,1.95
2019-02-06T07:35:31.020Z,1.98
2019-02-06T07:38:00.388Z,2.04
2019-02-06T07:40:29.671Z,2.08
2019-02-06T07:42:58.960Z,2.15
2019-02-06T07:45:28.247Z,2.23
2019-02-06T07:47:57.575Z,2.31
2019-02-06T07:50:28.931Z,2.41
2019-02-06T07:52:58.211Z,2.44
2019-02-06T07:55:27.472Z,2.54
2019-02-06T07:57:56.886Z,2.61
2019-02-06T08:00:26.176Z,2.80
2019-02-06T08:02:56.121Z,2.90
2019-02-06T08:05:25.411Z,3.03
2019-02-06T08:07:54.717Z,3.13
2019-02-06T08:10:26.578Z,3.16
2019-02-06T08:12:55.883Z,3.15
2019-02-06T08:15:25.160Z,3.19
2019-02-06T08:17:54.450Z,3.29
2019-02-06T08:20:23.785Z,3.25
2019-02-06T08:22:53.137Z,3.32
2019-02-06T08:25:22.386Z,3.33
2019-02-06T08:27:51.716Z,3.30
2019-02-06T08:30:23.676Z,3.34
2019-02-06T08:32:53.042Z,3.34
2019-02-06T08:35:22.291Z,3.40
2019-02-06T08:37:51.573Z,3.37
2019-02-06T08:40:21.388Z,3.38
2019-02-06T08:42:50.668Z,3.40
2019-02-06T08:45:19.970Z,3.40
2019-02-06T08:47:52.407Z,3.42
2019-02-06T08:50:21.690Z,3.44
2019-02-06T08:52:51.017Z,3.49
2019-02-06T08:55:22.078Z,3.46
2019-02-06T08:57:51.414Z,3.74
2019-02-06T09:00:28.968Z,4.01
2019-02-06T09:02:58.281Z,3.93
2019-02-06T09:05:27.556Z,3.81
2019-02-06T09:07:56.886Z,3.82
2019-02-06T09:10:26.212Z,3.77
2019-02-06T09:12:56.508Z,3.79
2019-02-06T09:15:27.405Z,3.84
2019-02-06T09:17:55.156Z,3.89
2019-02-06T09:20:25.144Z,3.88
2019-02-06T09:22:54.497Z,3.95
2019-02-06T09:25:25.643Z,3.99
2019-02-06T09:27:54.870Z,4.09
2019-02-06T09:30:25.954Z,4.16
2019-02-06T09:32:55.566Z,4.22
2019-02-06T09:35:24.888Z,4.18
2019-02-06T09:37:54.232Z,4.21
2019-02-06T09:40:25.289Z,4.29
2019-02-06T09:42:54.605Z,4.28
2019-02-06T09:45:23.888Z,4.34
2019-02-06T09:47:53.265Z,4.31
2019-02-06T09:50:24.676Z,4.35
2019-02-06T09:52:54.029Z,4.40
2019-02-06T09:55:23.467Z,4.42
2019-02-06T09:57:52.732Z,4.55
2019-02-06T10:00:24.398Z,4.50
2019-02-06T10:02:53.654Z,4.52
2019-02-06T10:05:22.950Z,4.54
2019-02-06T10:07:52.301Z,4.56
2019-02-06T10:10:22.446Z,4.64
2019-02-06T10:12:51.718Z,4.66
2019-02-06T10:15:28.922Z,4.75
2019-02-06T10:17:59.021Z,4.78
2019-02-06T10:20:33.966Z,4.87
2019-02-06T10:23:03.364Z,4.87
2019-02-06T10:25:32.662Z,4.93
2019-02-06T10:28:01.955Z,5.03
2019-02-06T10:30:36.594Z,5.06
2019-02-06T10:33:05.986Z,5.07
2019-02-06T10:35:35.257Z,5.08
2019-02-06T10:38:04.608Z,5.13
2019-02-06T10:40:33.887Z,5.13
2019-02-06T10:43:03.182Z,5.18
2019-02-06T10:45:32.434Z,5.22
2019-02-06T10:48:01.827Z,5.33
2019-02-06T10:50:33.358Z,5.31
2019-02-06T10:53:02.590Z,5.40
2019-02-06T10:55:31.887Z,5.46
2019-02-06T10:58:01.275Z,5.55
2019-02-06T11:00:33.240Z,5.58
2019-02-06T11:03:02.502Z,5.69
2019-02-06T11:05:31.754Z,5.75
2019-02-06T11:08:01.294Z,5.84
2019-02-06T11:10:30.462Z,5.95
2019-02-06T11:12:59.774Z,5.86
2019-02-06T11:15:29.226Z,5.74
2019-02-06T11:17:58.573Z,5.85
2019-02-06T11:20:28.283Z,5.89
2019-02-06T11:22:57.558Z,5.94
2019-02-06T11:25:26.856Z,6.10
2019-02-06T11:27:56.134Z,6.13
2019-02-06T11:30:26.482Z,6.24
2019-02-06T11:32:55.961Z,6.36
2019-02-06T11:35:25.246Z,6.25
2019-02-06T11:37:54.526Z,6.26
2019-02-06T11:40:24.387Z,6.55
2019-02-06T11:42:53.782Z,6.74
2019-02-06T11:45:25.972Z,6.76
2019-02-06T11:47:55.204Z,6.89
2019-02-06T11:50:29.122Z,6.99
2019-02-06T11:52:58.470Z,7.00
2019-02-06T11:55:27.782Z,6.87
2019-02-06T11:57:57.156Z,6.85
2019-02-06T12:00:43.264Z,6.71
2019-02-06T12:03:12.525Z,6.78
2019-02-06T12:05:41.910Z,6.61
2019-02-06T12:08:12.659Z,6.63
2019-02-06T12:10:40.600Z,6.68
2019-02-06T12:13:09.893Z,6.72
2019-02-06T12:15:39.238Z,6.83
2019-02-06T12:18:08.585Z,6.92
2019-02-06T12:20:38.005Z,6.90
2019-02-06T12:23:07.290Z,6.90
2019-02-06T12:25:36.600Z,6.91
2019-02-06T12:28:06.050Z,7.09
2019-02-06T12:30:35.517Z,7.13
2019-02-06T12:33:04.914Z,7.04
2019-02-06T12:35:34.230Z,6.96
2019-02-06T12:38:03.779Z,6.97
2019-02-06T12:40:33.110Z,6.90
2019-02-06T12:43:02.407Z,6.97
2019-02-06T12:45:31.735Z,7.16
2019-02-06T12:48:00.982Z,7.23
2019-02-06T12:50:30.333Z,7.23
2019-02-06T12:52:59.630Z,7.20
2019-02-06T12:55:31.274Z,6.91
2019-02-06T12:58:00.696Z,6.82
2019-02-06T13:00:31.322Z,6.73
2019-02-06T13:03:00.630Z,6.76
2019-02-06T13:05:30.618Z,6.66
2019-02-06T13:08:00.062Z,6.62
2019-02-06T13:10:33.990Z,6.62
2019-02-06T13:12:58.645Z,6.62
2019-02-06T13:15:27.990Z,6.66
2019-02-06T13:17:57.365Z,6.78
2019-02-06T13:20:28.271Z,6.77
2019-02-06T13:22:57.564Z,6.76
2019-02-06T13:25:26.818Z,6.82
2019-02-06T13:27:56.118Z,6.81
2019-02-06T13:30:30.383Z,6.75
2019-02-06T13:32:59.653Z,6.83
2019-02-06T13:35:28.962Z,6.83
2019-02-06T13:37:58.403Z,6.83
2019-02-06T13:40:28.229Z,6.86
2019-02-06T13:42:57.750Z,6.87
2019-02-06T13:45:32.467Z,6.89
2019-02-06T13:48:01.764Z,6.95
2019-02-06T13:50:31.052Z,6.96
2019-02-06T13:53:00.313Z,6.99
2019-02-06T13:55:29.615Z,6.99
2019-02-06T13:57:58.891Z,7.01
2019-02-06T14:00:32.887Z,7.13
2019-02-06T14:03:02.505Z,7.11
2019-02-06T14:05:32.164Z,7.13
2019-02-06T14:08:07.597Z,7.15
2019-02-06T14:10:36.842Z,7.18
2019-02-06T14:13:06.066Z,7.15
2019-02-06T14:15:38.033Z,7.13
2019-02-06T14:18:07.326Z,7.12
2019-02-06T14:20:36.714Z,7.12
2019-02-06T14:23:21.748Z,7.10
2019-02-06T14:26:40.905Z,7.10
2019-02-06T14:29:52.148Z,7.10
2019-02-06T14:33:05.907Z,7.11
2019-02-06T14:36:05.704Z,7.06
2019-02-06T14:38:49.320Z,7.05
2019-02-06T14:41:48.126Z,7.04
2019-02-06T14:44:46.420Z,7.06
2019-02-06T14:47:52.928Z,7.04
2019-02-06T14:51:08.243Z,7.12
2019-02-06T14:54:17.380Z,7.16
2019-02-06T14:57:20.566Z,7.18
2019-02-06T15:00:06.376Z,7.17
2019-02-06T15:03:29.604Z,7.18
2019-02-06T15:06:30.143Z,7.18
2019-02-06T15:09:46.328Z,7.14
2019-02-06T15:13:21.803Z,7.16
2019-02-06T15:16:04.716Z,7.07
2019-02-06T15:18:53.295Z,7.04
2019-02-06T15:21:44.399Z,7.04
2019-02-06T15:24:41.054Z,7.07
2019-02-06T15:27:39.155Z,7.11
2019-02-06T15:30:50.297Z,7.11
2019-02-06T15:33:48.381Z,7.10
2019-02-06T15:36:39.987Z,7.10
2019-02-06T15:39:50.594Z,7.13
2019-02-06T15:42:43.610Z,7.17
2019-02-06T15:45:36.958Z,7.08
2019-02-06T15:48:21.453Z,7.03
2019-02-06T15:51:43.798Z,7.02
2019-02-06T15:54:56.491Z,6.94
2019-02-06T15:57:50.924Z,6.86
2019-02-06T16:01:01.012Z,6.84
2019-02-06T16:04:11.530Z,6.80
2019-02-06T16:06:54.325Z,6.70
2019-02-06T16:10:04.479Z,6.70
2019-02-06T16:13:21.584Z,6.67
2019-02-06T16:16:12.036Z,6.60
2019-02-06T16:19:07.695Z,6.58
2019-02-06T16:21:53.381Z,6.54
2019-02-06T16:25:12.172Z,6.53
2019-02-06T16:28:35.172Z,6.52
2019-02-06T16:31:18.824Z,6.50
2019-02-06T16:34:17.213Z,6.48
2019-02-06T16:37:26.298Z,6.46
2019-02-06T16:40:45.284Z,6.45
2019-02-06T16:43:36.418Z,6.44
2019-02-06T16:46:32.286Z,6.39
2019-02-06T16:49:18.184Z,6.39
2019-02-06T16:52:23.939Z,6.36
2019-02-06T16:55:41.088Z,6.36
2019-02-06T16:58:47.568Z,6.33
2019-02-06T17:02:07.316Z,6.31
2019-02-06T17:05:10.607Z,6.31
2019-02-06T17:07:55.204Z,6.27
2019-02-06T17:11:08.454Z,6.25
2019-02-06T17:14:07.316Z,6.23
2019-02-06T17:16:59.276Z,6.21
2019-02-06T17:20:21.651Z,6.19
2019-02-06T17:23:18.646Z,6.17
2019-02-06T17:26:22.488Z,6.19
2019-02-06T17:29:14.491Z,6.21
2019-02-06T17:32:02.825Z,6.24
2019-02-06T17:35:31.768Z,6.23
2019-02-06T17:38:37.050Z,6.23
2019-02-06T17:41:41.336Z,6.23
2019-02-06T17:45:13.267Z,6.18
2019-02-06T17:48:34.111Z,6.18
2019-02-06T17:51:42.536Z,6.20
2019-02-06T17:54:36.481Z,6.20
2019-02-06T17:57:05.770Z,6.20
2019-02-06T17:59:35.114Z,6.21
2019-02-06T18:02:04.468Z,6.18
2019-02-06T18:04:37.466Z,6.15
2019-02-06T18:07:06.902Z,6.13
2019-02-06T18:09:36.313Z,6.12
2019-02-06T18:12:06.354Z,6.12
2019-02-06T18:14:35.735Z,6.14
2019-02-06T18:17:05.369Z,5.95
2019-02-06T18:19:39.300Z,6.17
2019-02-06T18:22:09.056Z,6.16
2019-02-06T18:24:38.662Z,6.15
2019-02-06T18:27:08.024Z,6.16
2019-02-06T18:29:37.473Z,6.14
2019-02-06T18:32:08.800Z,6.12
2019-02-06T18:34:38.066Z,6.08
2019-02-06T18:37:09.439Z,6.08
2019-02-06T18:39:38.894Z,6.07
2019-02-06T18:42:09.902Z,6.06
2019-02-06T18:44:39.268Z,6.05
2019-02-06T18:47:10.794Z,6.02
2019-02-06T18:49:40.125Z,6.02
2019-02-06T18:52:19.993Z,6.06
2019-02-06T18:54:38.768Z,6.03
2019-02-06T18:57:08.282Z,6.03
2019-02-06T18:59:37.651Z,6.06
2019-02-06T19:02:09.510Z,6.03
2019-02-06T19:04:36.547Z,6.04
2019-02-06T19:07:05.836Z,6.05
2019-02-06T19:09:35.146Z,6.04
2019-02-06T19:12:04.498Z,6.01
2019-02-06T19:14:33.922Z,6.01
2019-02-06T19:17:03.277Z,6.00
2019-02-06T19:19:32.590Z,6.00
2019-02-06T19:22:01.919Z,6.03
2019-02-06T19:24:31.319Z,6.03
2019-02-06T19:27:00.646Z,6.02
2019-02-06T19:29:30.129Z,5.99
2019-02-06T19:31:59.987Z,5.99
2019-02-06T19:34:29.278Z,5.97
2019-02-06T19:36:58.590Z,5.96
2019-02-06T19:39:27.887Z,5.99
2019-02-06T19:41:57.224Z,5.97
2019-02-06T19:44:26.588Z,5.96
2019-02-06T19:46:55.912Z,5.99
2019-02-06T19:49:25.354Z,5.99
2019-02-06T19:51:54.717Z,5.99
2019-02-06T19:54:24.029Z,5.98
2019-02-06T19:56:53.313Z,6.00
2019-02-06T19:59:22.610Z,6.01
2019-02-06T20:01:51.948Z,6.03
2019-02-06T20:04:21.142Z,6.05
2019-02-06T20:06:50.460Z,6.05
2019-02-06T20:09:19.834Z,6.05
2019-02-06T20:11:49.096Z,6.06
2019-02-06T20:14:18.394Z,6.03
2019-02-06T20:16:47.710Z,6.02
2019-02-06T20:19:17.028Z,5.99
2019-02-06T20:21:49.509Z,5.96
2019-02-06T20:24:15.750Z,5.94
2019-02-06T20:26:45.038Z,5.92
2019-02-06T20:29:14.318Z,5.89
2019-02-06T20:31:43.617Z,5.85
2019-02-06T20:34:12.919Z,5.84
2019-02-06T20:36:42.250Z,5.84
2019-02-06T20:39:11.612Z,5.81
2019-02-06T20:41:40.966Z,5.80
2019-02-06T20:44:10.230Z,5.79
2019-02-06T20:46:39.562Z,5.78
2019-02-06T20:49:08.848Z,5.79
2019-02-06T20:51:38.126Z,5.81
2019-02-06T20:54:07.409Z,5.82
2019-02-06T20:56:36.763Z,5.82
2019-02-06T20:59:06.463Z,5.81
2019-02-06T21:01:35.781Z,5.80
2019-02-06T21:04:05.102Z,5.80
2019-02-06T21:06:36.528Z,5.81
2019-02-06T21:09:11.400Z,5.79
2019-02-06T21:11:40.800Z,5.81
2019-02-06T21:14:10.088Z,5.83
2019-02-06T21:16:39.376Z,5.88
2019-02-06T21:19:08.699Z,5.88
2019-02-06T21:21:38.032Z,5.90
2019-02-06T21:24:07.375Z,5.89
2019-02-06T21:26:36.782Z,5.89
2019-02-06T21:29:06.104Z,5.88
2019-02-06T21:31:35.467Z,5.89
2019-02-06T21:34:05.942Z,5.87
2019-02-06T21:36:34.124Z,5.86
2019-02-06T21:39:03.715Z,5.94
2019-02-06T21:41:33.046Z,6.34
2019-02-06T21:44:02.326Z,6.51
2019-02-06T21:46:31.678Z,6.76
2019-02-06T21:49:00.956Z,6.81
2019-02-06T21:51:30.232Z,6.62
2019-02-06T21:53:59.563Z,6.41
2019-02-06T21:56:28.858Z,6.22
2019-02-06T21:58:58.174Z,6.03
2019-02-06T22:01:27.474Z,5.86
2019-02-06T22:03:56.780Z,5.77
2019-02-06T22:06:26.036Z,5.67
2019-02-06T22:08:55.360Z,5.47
2019-02-06T22:11:24.682Z,5.57
2019-02-06T22:13:55.511Z,5.54
2019-02-06T22:16:23.365Z,5.48
2019-02-06T22:18:55.713Z,5.42
2019-02-06T22:21:25.085Z,5.37
2019-02-06T22:23:54.476Z,5.35
2019-02-06T22:26:23.782Z,5.34
2019-02-06T22:28:53.094Z,5.34
2019-02-06T22:31:22.668Z,5.39
2019-02-06T22:33:51.968Z,5.37
2019-02-06T22:36:21.272Z,5.36
2019-02-06T22:38:50.566Z,5.36
2019-02-06T22:41:19.822Z,5.32
2019-02-06T22:43:49.113Z,5.34
2019-02-06T22:46:18.404Z,5.33
2019-02-06T22:48:47.731Z,5.35
2019-02-06T22:51:17.606Z,5.34
2019-02-06T22:53:46.995Z,5.34
2019-02-06T22:56:17.347Z,5.36
2019-02-06T22:58:46.744Z,5.34
2019-02-06T23:01:54.838Z,5.31
2019-02-06T23:04:24.141Z,5.28
2019-02-06T23:06:53.417Z,5.22
2019-02-06T23:09:22.786Z,5.18
2019-02-06T23:11:52.043Z,5.16
2019-02-06T23:14:21.478Z,5.13
2019-02-06T23:16:50.818Z,5.09
2019-02-06T23:19:20.066Z,5.06
2019-02-06T23:21:49.433Z,5.07
2019-02-06T23:24:18.682Z,5.02
2019-02-06T23:26:47.958Z,4.99
2019-02-06T23:29:17.212Z,4.93
2019-02-06T23:31:46.512Z,4.90
2019-02-06T23:34:15.778Z,4.88
2019-02-06T23:36:45.190Z,4.91
2019-02-06T23:39:16.617Z,4.86
2019-02-06T23:41:45.886Z,4.83
2019-02-06T23:44:15.187Z,4.83
2019-02-06T23:46:44.486Z,4.82
2019-02-06T23:49:13.786Z,4.81
2019-02-06T23:51:43.068Z,4.82
2019-02-06T23:54:12.406Z,4.85
2019-02-06T23:56:41.690Z,4.85
2019-02-06T23:59:11.001Z,4.81
